Terminal Aerodrome Forecast
Issued by NWS Atlanta, GA

Home | Current Version | Previous Version | Text Only | Print | Product List | Glossary On
Versions: 1 2 3 4 5 6 7 8 9 10 11 12 13
000
FTUS42 KFFC 181122
TAFCSG
TAF
KCSG 181122Z 1812/1912 32003KT P6SM SCT150 BKN250
     FM181800 31005KT P6SM BKN060
     FM190100 34005KT P6SM SCT080 BKN150
     FM190900 01003KT P6SM SCT150=

USA.gov is the U.S. government's official web portal to all federal, state and local government web resources and services.